Time;durP1;ratioP1;P1;durP2;ratioP2;P2;SDS_P1;SDS_P2;PMS_P1;PMS_P2;Temp;Humidity;BMP_temperature;BMP_pressure;BME280_temperature;BME280_humidity;BME280_pressure;Samples;Min_cycle;Max_cycle;Signal;HPM_P1;HPM_P2
2023/11/16 00:01:41;;;;;;;13.57;3.20;;;;;;;8.12;100.00;101584.63;5089925;28;20472;-35
2023/11/16 00:04:07;;;;;;;7.82;2.75;;;;;;;8.14;100.00;101587.13;5090309;28;20479;-35
2023/11/16 00:06:32;;;;;;;7.53;3.10;;;;;;;8.15;100.00;101586.94;5089908;28;20024;-35
2023/11/16 00:08:57;;;;;;;8.50;2.83;;;;;;;8.17;100.00;101581.34;5078327;28;20029;-35
2023/11/16 00:11:24;;;;;;;9.30;3.00;;;;;;;8.10;100.00;101575.06;5076316;28;20047;-36
2023/11/16 00:13:50;;;;;;;7.93;2.65;;;;;;;8.05;100.00;101566.75;5075891;28;20271;-35
2023/11/16 00:16:16;;;;;;;14.05;3.75;;;;;;;8.14;100.00;101595.19;5075818;28;20052;-35
2023/11/16 00:18:42;;;;;;;6.72;2.90;;;;;;;8.10;100.00;101589.41;5076601;28;20033;-35
2023/11/16 00:21:08;;;;;;;;;;;;;;;8.15;100.00;101589.63;5076506;28;20031;-35
2023/11/16 00:23:34;;;;;;;12.25;3.33;;;;;;;7.94;100.00;101585.13;5076556;28;19909;-35
2023/11/16 00:25:59;;;;;;;9.17;2.93;;;;;;;8.00;100.00;101595.13;5076865;28;20441;-35
2023/11/16 00:28:26;;;;;;;8.07;3.42;;;;;;;7.92;100.00;101583.66;5075881;28;20060;-35
2023/11/16 00:30:52;;;;;;;7.28;2.78;;;;;;;7.98;100.00;101589.09;5075920;28;20032;-35
2023/11/16 00:33:18;;;;;;;6.75;2.75;;;;;;;7.98;100.00;101593.63;5075521;28;20095;-35
2023/11/16 00:35:45;;;;;;;6.23;2.27;;;;;;;7.95;100.00;101588.63;5075788;28;20491;-35
2023/11/16 00:38:11;;;;;;;7.25;3.17;;;;;;;7.93;100.00;101588.00;5076015;28;20410;-35
2023/11/16 00:40:36;;;;;;;10.50;3.25;;;;;;;7.91;100.00;101592.78;5075950;28;20032;-35
2023/11/16 00:43:02;;;;;;;12.50;3.03;;;;;;;7.88;100.00;101583.22;5075347;28;20025;-35
2023/11/16 00:45:27;;;;;;;9.97;2.97;;;;;;;7.79;100.00;101573.59;5075723;28;20304;-35
2023/11/16 00:47:53;;;;;;;6.23;2.57;;;;;;;7.87;100.00;101589.63;5076076;28;20033;-35
2023/11/16 00:50:18;;;;;;;9.38;3.35;;;;;;;7.84;100.00;101575.72;5076678;28;20259;-35
2023/11/16 00:52:46;;;;;;;7.47;2.63;;;;;;;7.89;100.00;101589.44;5075559;28;20165;-35
2023/11/16 00:55:12;;;;;;;5.97;2.50;;;;;;;7.88;100.00;101588.59;5075760;28;20020;-35
2023/11/16 00:57:37;;;;;;;6.77;2.70;;;;;;;7.90;100.00;101591.91;5076032;28;20062;-35
2023/11/16 01:00:08;;;;;;;7.30;2.53;;;;;;;7.89;100.00;101595.63;5075750;28;20024;-35
2023/11/16 01:02:33;;;;;;;7.07;2.60;;;;;;;7.89;100.00;101595.63;5075561;28;20029;-36
2023/11/16 01:04:59;;;;;;;8.10;2.97;;;;;;;7.89;100.00;101595.63;5075257;28;20028;-35
2023/11/16 01:07:24;;;;;;;8.23;3.30;;;;;;;7.92;100.00;101594.44;5074873;28;20086;-35
2023/11/16 01:09:49;;;;;;;6.53;2.40;;;;;;;7.92;100.00;101597.97;5075451;28;20102;-35
2023/11/16 01:12:15;;;;;;;12.53;2.80;;;;;;;7.89;100.00;101601.03;5074846;28;20397;-35
2023/11/16 01:14:42;;;;;;;6.30;2.40;;;;;;;7.83;100.00;101587.53;5074998;28;20278;-35
2023/11/16 01:17:12;;;;;;;8.65;2.80;;;;;;;7.83;100.00;101591.03;5075464;28;20107;-35
2023/11/16 01:19:45;;;;;;;10.50;2.90;;;;;;;7.73;100.00;101587.84;5073603;28;20029;-36
2023/11/16 01:22:14;;;;;;;10.13;2.90;;;;;;;7.71;100.00;101577.28;5075146;28;20381;-35
2023/11/16 01:24:41;;;;;;;7.47;3.10;;;;;;;7.77;100.00;101599.91;5074560;28;20481;-35
2023/11/16 01:27:15;;;;;;;9.93;3.00;;;;;;;7.75;100.00;101600.06;5073902;28;20041;-35
2023/11/16 01:29:45;;;;;;;8.18;2.67;;;;;;;7.74;100.00;101586.81;5075284;28;20051;-35
2023/11/16 01:32:11;;;;;;;8.73;2.75;;;;;;;7.71;100.00;101585.38;5074474;28;20107;-35
2023/11/16 01:34:36;;;;;;;7.97;2.92;;;;;;;7.72;100.00;101578.13;5074622;28;20039;-35
2023/11/16 01:37:03;;;;;;;9.30;2.90;;;;;;;7.53;100.00;101562.63;5074343;28;20115;-35
2023/11/16 01:39:31;;;;;;;8.18;2.90;;;;;;;7.64;100.00;101589.00;5074463;28;20021;-35
2023/11/16 01:41:57;;;;;;;9.23;2.63;;;;;;;7.64;100.00;101572.84;5074765;28;20055;-35
2023/11/16 01:44:22;;;;;;;10.93;3.63;;;;;;;7.63;100.00;101585.50;5075243;28;20032;-35
2023/11/16 01:46:50;;;;;;;7.17;2.50;;;;;;;7.48;100.00;101565.88;5074957;28;20467;-35
2023/11/16 01:49:16;;;;;;;8.27;2.53;;;;;;;7.62;100.00;101585.69;5075100;28;20611;-35
2023/11/16 01:51:45;;;;;;;8.02;2.53;;;;;;;7.59;100.00;101584.19;5074342;28;20066;-35
2023/11/16 01:54:15;;;;;;;8.98;3.17;;;;;;;7.59;100.00;101591.44;5072976;28;20031;-35
2023/11/16 01:56:40;;;;;;;8.75;2.75;;;;;;;7.52;100.00;101577.13;5074018;28;20052;-35
2023/11/16 01:59:07;;;;;;;7.27;2.73;;;;;;;7.61;100.00;101595.63;5074509;28;20029;-35
2023/11/16 02:01:34;;;;;;;9.40;2.60;;;;;;;7.55;100.00;101584.78;5074430;28;20262;-35
2023/11/16 02:04:04;;;;;;;5.95;2.42;;;;;;;7.48;100.00;101568.59;5074912;28;20056;-35
2023/11/16 02:06:30;;;;;;;9.77;2.70;;;;;;;7.52;100.00;101588.72;5074327;28;20033;-35
2023/11/16 02:08:55;;;;;;;7.72;2.88;;;;;;;7.54;100.00;101588.50;5074028;28;20107;-35
2023/11/16 02:11:21;;;;;;;12.60;3.90;;;;;;;7.47;100.00;101575.00;5073975;28;20491;-35
2023/11/16 02:13:49;;;;;;;6.15;2.55;;;;;;;7.53;100.00;101584.16;5073597;28;20758;-35
2023/11/16 02:16:14;;;;;;;9.35;2.92;;;;;;;7.54;100.00;101588.50;5074630;28;20444;-35
2023/11/16 02:18:40;;;;;;;8.03;2.97;;;;;;;7.40;100.00;101556.06;5073927;28;20056;-36
2023/11/16 02:21:06;;;;;;;12.00;2.70;;;;;;;7.47;100.00;101565.06;5074122;28;20281;-35
2023/11/16 02:23:36;;;;;;;8.60;2.83;;;;;;;7.56;100.00;101575.66;5073758;28;20024;-35
2023/11/16 02:26:02;;;;;;;9.15;2.75;;;;;;;7.58;100.00;101577.16;5074317;28;20086;-35
2023/11/16 02:28:29;;;;;;;11.45;3.25;;;;;;;7.59;100.00;101576.13;5073731;28;20033;-35
2023/11/16 02:30:57;;;;;;;7.30;2.70;;;;;;;7.62;100.00;101580.31;5073451;28;20142;-35
2023/11/16 02:33:23;;;;;;;7.40;2.80;;;;;;;7.59;100.00;101580.69;5073949;28;20111;-35
2023/11/16 02:35:52;;;;;;;9.27;2.58;;;;;;;7.61;100.00;101575.91;5073855;28;20038;-35
2023/11/16 02:38:18;;;;;;;8.35;2.92;;;;;;;7.63;100.00;101579.28;5073600;28;20027;-35
2023/11/16 02:40:44;;;;;;;7.95;2.80;;;;;;;7.63;100.00;101580.09;5074181;28;20384;-36
2023/11/16 02:43:10;;;;;;;7.45;2.80;;;;;;;7.63;100.00;101574.72;5073600;28;20475;-35
2023/11/16 02:45:36;;;;;;;5.88;2.40;;;;;;;7.65;100.00;101580.72;5074332;28;20024;-35
2023/11/16 02:48:04;;;;;;;7.65;2.53;;;;;;;7.56;100.00;101567.59;5073759;28;20023;-35
2023/11/16 02:50:30;;;;;;;4.63;2.40;;;;;;;7.52;100.00;101560.97;5073454;28;20078;-35
2023/11/16 02:52:55;;;;;;;5.82;2.58;;;;;;;7.61;100.00;101581.31;5073242;28;20251;-35
2023/11/16 02:55:24;;;;;;;8.10;2.77;;;;;;;7.51;100.00;101564.66;5073755;28;20366;-35
2023/11/16 02:57:50;;;;;;;7.18;2.65;;;;;;;7.60;100.00;101576.97;5073923;28;20392;-35
2023/11/16 03:00:17;;;;;;;9.32;2.83;;;;;;;7.62;100.00;101577.63;5073411;28;20032;-35
2023/11/16 03:02:44;;;;;;;7.82;2.88;;;;;;;7.62;100.00;101580.31;5073592;28;20151;-35
2023/11/16 03:05:12;;;;;;;9.57;3.13;;;;;;;7.62;100.00;101573.06;5073326;28;20025;-35
2023/11/16 03:07:38;;;;;;;7.47;2.88;;;;;;;7.62;100.00;101566.84;5073257;28;20029;-35
2023/11/16 03:10:11;;;;;;;;;;;;;;;7.69;100.00;101567.72;5074610;28;20047;-35
2023/11/16 03:12:36;;;;;;;6.72;2.30;;;;;;;7.63;100.00;101584.66;5073795;28;19916;-35
2023/11/16 03:15:05;;;;;;;6.68;2.67;;;;;;;7.63;100.00;101585.50;5073308;28;20074;-35
2023/11/16 03:17:32;;;;;;;8.00;2.95;;;;;;;7.63;100.00;101587.34;5072868;28;20033;-35
2023/11/16 03:19:57;;;;;;;7.05;2.97;;;;;;;7.63;100.00;101588.19;5073677;28;20427;-35
2023/11/16 03:22:23;;;;;;;8.45;2.95;;;;;;;7.64;100.00;101589.00;5073471;28;20037;-35
2023/11/16 03:24:48;;;;;;;8.30;3.23;;;;;;;7.55;100.00;101574.00;5072873;28;20111;-35
2023/11/16 03:27:13;;;;;;;8.97;2.97;;;;;;;7.67;100.00;101592.16;5073437;28;20055;-35
2023/11/16 03:29:39;;;;;;;5.73;2.93;;;;;;;7.68;100.00;101585.75;5073649;28;20066;-35
2023/11/16 03:32:07;;;;;;;12.32;4.55;;;;;;;7.65;100.00;101583.41;5073114;28;20481;-35
2023/11/16 03:34:32;;;;;;;7.90;2.80;;;;;;;7.59;100.00;101576.13;5073016;28;20387;-35
2023/11/16 03:36:58;;;;;;;8.55;3.03;;;;;;;7.57;100.00;101571.97;5073266;28;20020;-35
2023/11/16 03:39:23;;;;;;;7.72;2.80;;;;;;;7.67;100.00;101569.78;5072698;28;20024;-35
2023/11/16 03:41:48;;;;;;;8.83;2.90;;;;;;;7.66;100.00;101578.88;5073227;28;20481;-35
2023/11/16 03:44:14;;;;;;;7.63;2.83;;;;;;;7.64;100.00;101584.44;5075750;28;20032;-35
2023/11/16 03:46:40;;;;;;;7.82;3.47;;;;;;;7.63;100.00;101579.28;5077449;28;20028;-35
2023/11/16 03:49:05;;;;;;;9.73;3.47;;;;;;;7.66;100.00;101589.63;5076571;28;20024;-35
2023/11/16 03:51:31;;;;;;;8.18;2.90;;;;;;;7.62;100.00;101572.22;5076878;28;20025;-35
2023/11/16 03:53:57;;;;;;;9.13;3.63;;;;;;;7.64;100.00;101572.84;5076302;28;20532;-35
2023/11/16 03:56:23;;;;;;;5.97;3.22;;;;;;;7.65;100.00;101572.66;5076700;28;20048;-35
2023/11/16 03:58:48;;;;;;;9.27;3.17;;;;;;;7.64;100.00;101564.78;5077357;28;20025;-35
2023/11/16 04:01:13;;;;;;;6.50;3.10;;;;;;;7.64;100.00;101552.16;5076479;28;20464;-35
2023/11/16 04:03:39;;;;;;;5.97;2.57;;;;;;;7.59;100.00;101540.31;5077016;28;20396;-35
2023/11/16 04:06:06;;;;;;;9.00;3.15;;;;;;;7.64;100.00;101554.84;5076390;28;20024;-35
2023/11/16 04:08:32;;;;;;;6.43;2.92;;;;;;;7.61;100.00;101557.09;5076555;28;20024;-35
2023/11/16 04:10:58;;;;;;;6.85;2.92;;;;;;;7.60;100.00;101555.41;5076272;28;20062;-35
2023/11/16 04:13:23;;;;;;;9.23;3.17;;;;;;;7.56;100.00;101546.91;5075914;28;20055;-35
2023/11/16 04:15:50;;;;;;;11.68;5.32;;;;;;;7.47;100.00;101546.22;5075818;28;20029;-35
2023/11/16 04:18:15;;;;;;;12.07;3.13;;;;;;;7.31;100.00;101522.25;5076146;28;20040;-35
2023/11/16 04:20:41;;;;;;;7.63;3.40;;;;;;;7.57;100.00;101555.84;5076686;28;20025;-35
2023/11/16 04:23:06;;;;;;;8.37;3.07;;;;;;;7.58;100.00;101554.78;5076051;28;20024;-35
2023/11/16 04:25:33;;;;;;;9.10;3.17;;;;;;;7.56;100.00;101548.75;5075842;28;20255;-35
2023/11/16 04:28:04;;;;;;;6.20;2.78;;;;;;;7.56;100.00;101551.44;5075696;28;20458;-35
2023/11/16 04:30:32;;;;;;;9.90;3.03;;;;;;;7.56;100.00;101548.75;5075941;28;20032;-35
2023/11/16 04:32:58;;;;;;;8.07;3.20;;;;;;;7.53;100.00;101546.47;5076438;28;20035;-35
2023/11/16 04:35:24;;;;;;;8.10;3.30;;;;;;;7.57;100.00;101553.13;5075588;28;20029;-35
2023/11/16 04:37:50;;;;;;;6.97;3.20;;;;;;;7.56;100.00;101563.03;5076223;28;20036;-35
2023/11/16 04:40:16;;;;;;;8.77;3.35;;;;;;;7.54;100.00;101558.91;5076062;28;20037;-35
2023/11/16 04:42:42;;;;;;;7.45;3.42;;;;;;;7.56;100.00;101551.44;5075686;28;20021;-35
2023/11/16 04:45:11;;;;;;;9.30;3.42;;;;;;;7.49;100.00;101557.63;5075624;28;20028;-36
2023/11/16 04:47:40;;;;;;;9.18;3.70;;;;;;;7.52;100.00;101560.97;5075527;28;20032;-35
2023/11/16 04:50:06;;;;;;;8.20;3.42;;;;;;;7.47;100.00;101559.69;5075591;28;20059;-35
2023/11/16 04:52:34;;;;;;;11.10;3.70;;;;;;;7.46;100.00;101562.53;5076051;28;20029;-35
2023/11/16 04:55:00;;;;;;;10.55;4.20;;;;;;;7.41;100.00;101543.44;5075332;28;20036;-35
2023/11/16 04:57:26;;;;;;;10.13;3.70;;;;;;;7.33;100.00;101539.06;5075780;28;20071;-35
2023/11/16 04:59:53;;;;;;;11.32;3.83;;;;;;;7.36;100.00;101532.44;5075395;28;20025;-35
2023/11/16 05:02:18;;;;;;;8.48;3.50;;;;;;;7.42;100.00;101545.16;5075573;28;20032;-35
2023/11/16 05:04:44;;;;;;;5.87;4.07;;;;;;;7.40;100.00;101534.56;5075525;28;20043;-35
2023/11/16 05:07:10;;;;;;;9.02;3.58;;;;;;;7.40;100.00;101541.78;5075199;28;20271;-35
2023/11/16 05:09:36;;;;;;;8.38;3.78;;;;;;;7.33;100.00;101541.75;5075174;28;20174;-35
2023/11/16 05:12:02;;;;;;;6.53;3.63;;;;;;;7.33;100.00;101532.84;5074891;28;20077;-35
2023/11/16 05:14:27;;;;;;;10.75;3.97;;;;;;;7.27;100.00;101521.00;5075028;28;20118;-36
2023/11/16 05:16:53;;;;;;;7.17;3.03;;;;;;;7.30;100.00;101539.44;5074974;28;20075;-35
2023/11/16 05:19:18;;;;;;;8.53;3.40;;;;;;;7.30;100.00;101541.28;5075277;28;20024;-35
2023/11/16 05:21:45;;;;;;;6.53;3.47;;;;;;;7.31;100.00;101549.16;5075485;28;20025;-35
2023/11/16 05:24:10;;;;;;;9.88;3.50;;;;;;;7.27;100.00;101539.81;5074875;28;20029;-35
2023/11/16 05:26:37;;;;;;;8.60;3.70;;;;;;;7.29;100.00;101543.16;5075701;28;20384;-35
2023/11/16 05:29:04;;;;;;;10.45;4.25;;;;;;;7.25;100.00;101527.59;5075304;28;20028;-35
2023/11/16 05:31:30;;;;;;;6.15;3.42;;;;;;;7.33;100.00;101532.84;5074741;28;20040;-35
2023/11/16 05:33:55;;;;;;;9.07;3.88;;;;;;;7.32;100.00;101523.94;5074640;28;20168;-35
2023/11/16 05:36:21;;;;;;;8.10;3.33;;;;;;;7.34;100.00;101513.81;5075396;28;20032;-35
2023/11/16 05:38:46;;;;;;;10.73;4.03;;;;;;;7.32;100.00;101518.56;5074579;28;20025;-35
2023/11/16 05:41:13;;;;;;;8.97;3.57;;;;;;;7.23;100.00;101514.34;5074554;28;20062;-35
2023/11/16 05:43:39;;;;;;;8.27;3.85;;;;;;;7.31;100.00;101511.50;5074129;28;20491;-35
2023/11/16 05:46:05;;;;;;;8.02;3.25;;;;;;;7.31;100.00;101511.50;5074477;28;20032;-35
2023/11/16 05:48:31;;;;;;;9.40;3.67;;;;;;;7.30;100.00;101517.91;5074365;28;20035;-35
2023/11/16 05:50:57;;;;;;;10.20;4.05;;;;;;;7.28;100.00;101517.28;5074668;28;20036;-35
2023/11/16 05:53:22;;;;;;;8.90;3.65;;;;;;;7.24;100.00;101507.91;5075368;28;20020;-35
2023/11/16 05:55:48;;;;;;;8.43;3.97;;;;;;;7.27;100.00;101517.44;5073930;28;20111;-35
2023/11/16 05:58:13;;;;;;;9.38;3.80;;;;;;;7.16;100.00;101503.50;5074221;28;20028;-35
2023/11/16 06:00:39;;;;;;;6.60;3.30;;;;;;;7.24;100.00;101513.31;5074149;28;20035;-35
2023/11/16 06:03:06;;;;;;;10.85;3.85;;;;;;;7.28;100.00;101501.13;5074086;28;20069;-35
2023/11/16 06:05:32;;;;;;;10.82;3.97;;;;;;;7.31;100.00;101500.72;5073264;28;20085;-35
2023/11/16 06:07:58;;;;;;;9.52;3.38;;;;;;;7.23;100.00;101490.94;5073887;28;20048;-35
2023/11/16 06:10:23;;;;;;;9.35;4.40;;;;;;;7.27;100.00;101509.38;5073635;28;20376;-35
2023/11/16 06:12:49;;;;;;;12.83;3.83;;;;;;;7.26;100.00;101502.34;5073914;28;20031;-35
2023/11/16 06:15:14;;;;;;;8.10;4.10;;;;;;;7.20;100.00;101494.00;5073890;28;20758;-36
2023/11/16 06:17:41;;;;;;;8.90;4.00;;;;;;;7.21;100.00;101495.66;5074124;28;20350;-35
2023/11/16 06:20:10;;;;;;;8.90;4.13;;;;;;;7.11;100.00;101488.97;5073555;28;20047;-35
2023/11/16 06:22:37;;;;;;;9.43;3.97;;;;;;;7.19;100.00;101496.91;5073719;28;20067;-35
2023/11/16 06:25:04;;;;;;;7.78;3.67;;;;;;;7.15;100.00;101501.84;5074360;28;20105;-35
2023/11/16 06:27:30;;;;;;;9.35;4.20;;;;;;;6.86;100.00;101448.19;5073448;28;20116;-35
2023/11/16 06:29:56;;;;;;;;;;;;;;;7.23;100.00;101487.44;5073918;28;20033;-35
2023/11/16 06:32:22;;;;;;;7.85;3.35;;;;;;;7.02;100.00;101464.03;5073750;28;19962;-35
2023/11/16 06:34:48;;;;;;;;;;;;;;;7.22;100.00;101491.13;5074061;28;20036;-35
2023/11/16 06:37:13;;;;;;;8.73;3.25;;;;;;;7.09;100.00;101480.25;5073305;28;19912;-35
2023/11/16 06:39:38;;;;;;;7.67;3.43;;;;;;;7.04;100.00;101482.69;5073893;28;20074;-35
2023/11/16 06:42:05;;;;;;;9.80;3.47;;;;;;;7.04;100.00;101480.00;5073626;28;20521;-35
2023/11/16 06:44:31;;;;;;;10.18;3.70;;;;;;;7.01;100.00;101473.16;5073227;28;20025;-35
2023/11/16 06:46:57;;;;;;;7.82;3.00;;;;;;;7.04;100.00;101477.31;5074041;28;20040;-35
2023/11/16 06:49:26;;;;;;;11.88;3.83;;;;;;;7.01;100.00;101477.69;5073418;28;20025;-35
2023/11/16 06:51:52;;;;;;;8.60;3.63;;;;;;;7.02;100.00;101476.66;5074231;28;20063;-35
2023/11/16 06:54:18;;;;;;;;;;;;;;;7.12;100.00;101467.25;5073833;28;20028;-35
2023/11/16 06:56:44;;;;;;;8.23;3.05;;;;;;;7.02;100.00;101449.78;5073529;28;19923;-35
2023/11/16 06:59:12;;;;;;;6.40;3.17;;;;;;;7.14;100.00;101456.31;5073730;28;20366;-35
2023/11/16 07:01:39;;;;;;;8.75;3.50;;;;;;;7.09;100.00;101462.25;5073660;28;20089;-35
2023/11/16 07:04:05;;;;;;;8.00;3.00;;;;;;;7.14;100.00;101459.00;5073360;28;20028;-35
2023/11/16 07:06:30;;;;;;;8.45;3.65;;;;;;;7.00;100.00;101423.09;5074214;28;20154;-35
2023/11/16 07:08:56;;;;;;;6.60;2.95;;;;;;;7.14;100.00;101440.16;5073066;28;20066;-35
2023/11/16 07:11:21;;;;;;;9.63;3.80;;;;;;;7.09;100.00;101426.47;5073664;28;20035;-35
2023/11/16 07:13:47;;;;;;;9.50;3.50;;;;;;;7.09;100.00;101434.53;5073293;28;20025;-35
2023/11/16 07:16:12;;;;;;;8.10;3.83;;;;;;;7.08;100.00;101422.13;5073166;28;20488;-35
2023/11/16 07:18:39;;;;;;;9.55;3.58;;;;;;;6.95;100.00;101402.16;5075057;28;20025;-35
2023/11/16 07:21:06;;;;;;;12.50;3.33;;;;;;;7.03;100.00;101417.31;5076909;28;20025;-35
2023/11/16 07:23:32;;;;;;;9.93;3.88;;;;;;;7.02;100.00;101423.72;5077100;28;20066;-35
2023/11/16 07:26:00;;;;;;;;;;;;;;;7.11;100.00;101425.25;5077570;28;20028;-35
2023/11/16 07:28:26;;;;;;;8.32;3.67;;;;;;;6.94;100.00;101416.63;5077170;28;19908;-35
2023/11/16 07:30:52;;;;;;;8.93;3.92;;;;;;;7.03;100.00;101427.22;5077093;28;20077;-35
2023/11/16 07:33:18;;;;;;;11.80;3.83;;;;;;;7.00;100.00;101430.31;5077007;28;20024;-35
2023/11/16 07:35:45;;;;;;;12.00;3.83;;;;;;;6.89;100.00;101420.91;5077276;28;20071;-35
2023/11/16 07:38:12;;;;;;;7.65;3.35;;;;;;;6.72;100.00;101390.75;5076893;28;20078;-35
2023/11/16 07:40:38;;;;;;;9.45;3.53;;;;;;;6.89;100.00;101415.53;5076868;28;20033;-35
2023/11/16 07:43:03;;;;;;;11.05;3.75;;;;;;;6.99;100.00;101421.44;5076540;28;20047;-35
2023/11/16 07:45:29;;;;;;;9.23;3.28;;;;;;;7.03;100.00;101420.00;5077338;28;20431;-35
2023/11/16 07:48:01;;;;;;;9.83;3.53;;;;;;;6.86;100.00;101397.94;5076813;28;20447;-35
2023/11/16 07:50:31;;;;;;;11.52;3.92;;;;;;;7.04;100.00;101418.16;5076858;28;20020;-35
2023/11/16 07:52:57;;;;;;;11.35;4.00;;;;;;;6.99;100.00;101410.66;5076823;28;20032;-36
2023/11/16 07:55:25;;;;;;;8.63;3.47;;;;;;;7.01;100.00;101413.97;5076549;28;20064;-35
2023/11/16 07:57:52;;;;;;;9.75;3.38;;;;;;;6.97;100.00;101389.31;5076962;28;20158;-35
2023/11/16 08:00:26;;;;;;;10.77;3.65;;;;;;;7.01;100.00;101402.41;5076509;28;20056;-35
2023/11/16 08:05:41;;;;;;;9.82;3.35;;;;;;;7.03;100.00;101395.81;5076449;28;20499;-35
2023/11/16 08:08:11;;;;;;;9.00;3.38;;;;;;;6.99;100.00;101378.41;5076253;28;20113;-35
2023/11/16 08:10:38;;;;;;;9.07;3.40;;;;;;;7.12;100.00;101383.88;5076297;28;20072;-35
2023/11/16 08:13:05;;;;;;;10.73;3.30;;;;;;;7.16;100.00;101379.75;5076252;28;20027;-35
2023/11/16 08:15:32;;;;;;;8.43;3.83;;;;;;;7.20;100.00;101380.22;5076732;28;20368;-35
2023/11/16 08:17:58;;;;;;;6.57;3.15;;;;;;;7.26;100.00;101384.81;5075846;28;20026;-35
2023/11/16 08:20:23;;;;;;;8.85;3.83;;;;;;;7.26;100.00;101378.59;5077013;28;20029;-35
2023/11/16 08:22:52;;;;;;;8.77;3.50;;;;;;;7.25;100.00;101380.44;5076359;28;20104;-35
2023/11/16 08:25:24;;;;;;;9.73;3.25;;;;;;;7.32;100.00;101377.81;5076311;28;20267;-35
2023/11/16 08:27:51;;;;;;;7.85;3.03;;;;;;;7.34;100.00;101373.06;5076329;28;20074;-35
2023/11/16 08:30:17;;;;;;;9.07;3.70;;;;;;;7.36;100.00;101379.91;5076326;28;20028;-35
2023/11/16 08:32:44;;;;;;;8.90;3.50;;;;;;;7.32;100.00;101378.66;5075897;28;20104;-35
2023/11/16 08:35:10;;;;;;;;;;;;;;;7.41;100.00;101382.84;5076811;28;20468;-35
2023/11/16 08:37:39;;;;;;;6.47;3.07;;;;;;;7.32;100.00;101383.19;5075701;28;19913;-35
2023/11/16 08:40:06;;;;;;;9.10;3.22;;;;;;;7.33;100.00;101374.94;5076175;28;20024;-35
2023/11/16 08:42:41;;;;;;;8.23;3.60;;;;;;;7.39;100.00;101371.44;5076313;28;20073;-36
2023/11/16 08:45:08;;;;;;;8.68;3.42;;;;;;;7.42;100.00;101368.38;5075414;28;20036;-35
2023/11/16 08:47:33;;;;;;;8.65;3.53;;;;;;;7.39;100.00;101363.38;5076224;28;20034;-35
2023/11/16 08:49:58;;;;;;;5.63;2.80;;;;;;;7.37;100.00;101348.44;5075606;28;20107;-35
2023/11/16 08:52:24;;;;;;;8.30;3.37;;;;;;;7.37;100.00;101360.06;5075597;28;20024;-35
2023/11/16 08:54:50;;;;;;;9.45;4.03;;;;;;;7.36;100.00;101353.00;5075430;28;20040;-35
2023/11/16 08:57:19;;;;;;;9.20;4.15;;;;;;;7.40;100.00;101359.66;5075976;28;20144;-35
2023/11/16 08:59:59;;;;;;;8.25;3.65;;;;;;;7.36;100.00;101361.06;5074500;28;20028;-35
2023/11/16 09:02:25;;;;;;;10.75;3.50;;;;;;;7.32;100.00;101367.03;5076186;28;20058;-35
2023/11/16 09:04:50;;;;;;;9.25;3.67;;;;;;;7.27;100.00;101359.59;5076106;28;20060;-35
2023/11/16 09:07:16;;;;;;;8.90;3.95;;;;;;;7.31;100.00;101357.31;5075277;28;20037;-35
2023/11/16 09:09:45;;;;;;;8.73;3.80;;;;;;;7.32;100.00;101361.66;5075197;28;20069;-35
2023/11/16 09:12:12;;;;;;;8.32;3.97;;;;;;;7.33;100.00;101371.41;5074920;28;20031;-35
2023/11/16 09:14:40;;;;;;;8.90;3.45;;;;;;;7.33;100.00;101363.34;5075357;28;20025;-35
2023/11/16 09:17:16;;;;;;;13.32;4.25;;;;;;;7.17;100.00;101333.03;5075001;28;20044;-35
2023/11/16 09:19:43;;;;;;;8.18;4.00;;;;;;;7.31;100.00;101346.56;5075328;28;20025;-35
2023/11/16 09:22:09;;;;;;;7.32;3.75;;;;;;;7.41;100.00;101358.63;5075184;28;20487;-35
2023/11/16 09:24:38;;;;;;;9.82;3.55;;;;;;;7.39;100.00;101352.63;5075394;28;20028;-35
2023/11/16 09:27:04;;;;;;;9.63;3.88;;;;;;;7.38;100.00;101350.97;5075419;28;20051;-35
2023/11/16 09:29:30;;;;;;;9.82;3.65;;;;;;;7.38;100.00;101348.28;5075024;28;20456;-35
2023/11/16 09:31:56;;;;;;;9.10;3.70;;;;;;;7.38;100.00;101344.75;5074678;28;20036;-35
2023/11/16 09:34:21;;;;;;;9.88;3.80;;;;;;;7.35;100.00;101337.88;5074976;28;20028;-35
2023/11/16 09:36:50;;;;;;;7.78;4.20;;;;;;;7.41;100.00;101339.78;5074563;28;20056;-35
2023/11/16 09:39:16;;;;;;;9.52;4.10;;;;;;;7.45;100.00;101335.66;5074599;28;20437;-35
2023/11/16 09:41:49;;;;;;;10.45;4.45;;;;;;;7.43;100.00;101332.34;5072492;28;20055;-35
2023/11/16 09:44:17;;;;;;;10.52;4.15;;;;;;;7.47;100.00;101338.19;5074443;28;20112;-35
2023/11/16 09:46:47;;;;;;;10.68;5.05;;;;;;;7.43;100.00;101332.34;5074123;28;20036;-35
2023/11/16 09:49:16;;;;;;;9.27;4.75;;;;;;;7.47;100.00;101327.41;5074400;28;20103;-35
2023/11/16 09:51:43;;;;;;;8.48;4.10;;;;;;;7.48;100.00;101321.81;5074270;28;20040;-35
2023/11/16 09:54:10;;;;;;;11.77;5.00;;;;;;;7.48;100.00;101326.38;5074187;28;20024;-35
2023/11/16 09:56:40;;;;;;;11.52;4.55;;;;;;;7.29;100.00;101300.19;5074889;28;20084;-35
2023/11/16 09:59:13;;;;;;;11.82;4.30;;;;;;;7.49;100.00;101338.81;5074148;28;20039;-35
2023/11/16 10:01:42;;;;;;;9.57;4.22;;;;;;;7.43;100.00;101329.66;5074298;28;20028;-35
2023/11/16 10:04:11;;;;;;;9.48;4.43;;;;;;;7.46;100.00;101325.72;5074334;28;20063;-35
2023/11/16 10:06:37;;;;;;;11.20;4.75;;;;;;;7.42;100.00;101314.56;5074029;28;20044;-35
2023/11/16 10:09:14;;;;;;;10.30;4.05;;;;;;;7.46;100.00;101317.66;5073746;28;20020;-35
2023/11/16 10:11:40;;;;;;;11.50;3.88;;;;;;;7.46;100.00;101317.66;5073689;28;20029;-35
2023/11/16 10:14:07;;;;;;;9.48;3.30;;;;;;;7.47;100.00;101312.09;5073869;28;20048;-35
2023/11/16 10:16:32;;;;;;;7.88;3.80;;;;;;;7.53;100.00;101315.84;5073791;28;20476;-35
2023/11/16 10:19:06;;;;;;;9.20;3.97;;;;;;;7.49;100.00;101299.25;5073560;28;20028;-35
2023/11/16 10:21:39;;;;;;;13.10;4.70;;;;;;;7.57;100.00;101314.44;5074683;28;20066;-35
2023/11/16 10:24:12;;;;;;;8.35;4.38;;;;;;;7.58;100.00;101304.50;5073723;28;20536;-35
2023/11/16 10:26:39;;;;;;;10.70;3.50;;;;;;;7.60;100.00;101305.94;5073740;28;20020;-35
2023/11/16 10:29:05;;;;;;;10.73;3.88;;;;;;;7.54;100.00;101282.53;5073682;28;20108;-35
2023/11/16 10:31:32;;;;;;;9.85;4.30;;;;;;;7.69;100.00;101293.97;5074240;28;20107;-35
2023/11/16 10:33:58;;;;;;;10.85;3.55;;;;;;;7.69;100.00;101291.28;5073591;28;20029;-35
2023/11/16 10:36:27;;;;;;;6.80;3.65;;;;;;;7.74;100.00;101287.97;5073540;28;20120;-35
2023/11/16 10:38:57;;;;;;;12.27;4.28;;;;;;;7.68;100.00;101275.34;5073559;28;20146;-35
2023/11/16 10:41:23;;;;;;;6.55;3.22;;;;;;;7.74;100.00;101274.53;5073837;28;20467;-35
2023/11/16 10:43:52;;;;;;;9.55;4.30;;;;;;;7.64;100.00;101269.50;5073453;28;20107;-35
2023/11/16 10:46:19;;;;;;;8.85;3.92;;;;;;;7.69;100.00;101260.84;5073714;28;20074;-35
2023/11/16 10:48:49;;;;;;;9.13;4.40;;;;;;;7.78;100.00;101272.25;5073222;28;20103;-35
2023/11/16 10:51:17;;;;;;;7.13;3.75;;;;;;;7.76;100.00;101267.09;5073429;28;20040;-35
2023/11/16 10:53:44;;;;;;;10.25;4.40;;;;;;;7.81;100.00;101261.94;5073905;28;20029;-35
2023/11/16 10:56:12;;;;;;;10.30;4.10;;;;;;;7.80;100.00;101254.03;5073900;28;20048;-35
2023/11/16 10:58:40;;;;;;;11.82;4.18;;;;;;;7.82;100.00;101254.69;5073066;28;20120;-35
2023/11/16 11:01:10;;;;;;;8.43;4.30;;;;;;;7.77;100.00;101241.00;5073663;28;20029;-35
2023/11/16 11:03:36;;;;;;;9.55;4.40;;;;;;;7.76;100.00;101256.31;5073869;28;20086;-35
2023/11/16 11:06:04;;;;;;;8.85;4.35;;;;;;;7.78;100.00;101237.25;5073983;28;20025;-35
2023/11/16 11:08:38;;;;;;;10.05;4.50;;;;;;;7.70;100.00;101239.09;5073578;28;20025;-35
2023/11/16 11:11:04;;;;;;;10.52;5.18;;;;;;;7.64;100.00;101225.63;5073281;28;20031;-35
2023/11/16 11:13:32;;;;;;;10.70;4.85;;;;;;;7.61;100.00;101231.41;5072959;28;20035;-35
2023/11/16 11:16:05;;;;;;;11.55;5.03;;;;;;;7.61;100.00;101215.25;5073439;28;20036;-35
2023/11/16 11:18:31;;;;;;;11.63;4.72;;;;;;;7.63;100.00;101219.41;5073228;28;20108;-35
2023/11/16 11:21:09;;;;;;;10.90;5.63;;;;;;;7.64;100.00;101213.00;5073500;28;20052;-35
2023/11/16 11:23:39;;;;;;;9.73;5.35;;;;;;;7.63;100.00;101208.66;5073160;28;20025;-35
2023/11/16 11:26:09;;;;;;;9.68;5.25;;;;;;;7.67;100.00;101203.69;5072911;28;20025;-35